createdAt,value
2022-11-12T00:02:15.803Z,9.93
2022-11-12T00:05:02.526Z,9.92
2022-11-12T00:07:48.718Z,9.92
2022-11-12T00:10:34.723Z,9.92
2022-11-12T00:13:20.596Z,9.91
2022-11-12T00:16:07.817Z,9.91
2022-11-12T00:18:53.500Z,9.91
2022-11-12T00:21:39.621Z,9.89
2022-11-12T00:24:25.176Z,9.90
2022-11-12T00:27:11.736Z,9.90
2022-11-12T00:29:57.430Z,9.91
2022-11-12T00:32:43.082Z,9.92
2022-11-12T00:35:28.948Z,9.94
2022-11-12T00:38:14.887Z,9.95
2022-11-12T00:41:03.251Z,9.98
2022-11-12T00:43:48.704Z,9.99
2022-11-12T00:46:34.211Z,10.00
2022-11-12T00:49:20.141Z,9.98
2022-11-12T00:52:06.024Z,9.97
2022-11-12T00:54:51.929Z,9.99
2022-11-12T00:57:38.104Z,10.01
2022-11-12T01:00:24.131Z,10.04
2022-11-12T01:03:09.960Z,10.03
2022-11-12T01:05:55.730Z,10.04
2022-11-12T01:08:43.223Z,10.06
2022-11-12T01:11:31.136Z,10.07
2022-11-12T01:14:16.923Z,10.07
2022-11-12T01:17:03.018Z,10.05
2022-11-12T01:19:49.123Z,10.02
2022-11-12T01:22:34.999Z,9.98
2022-11-12T01:25:21.404Z,9.95
2022-11-12T01:28:07.197Z,9.96
2022-11-12T01:30:53.609Z,9.95
2022-11-12T01:33:39.688Z,9.96
2022-11-12T01:36:26.703Z,9.98
2022-11-12T01:39:12.326Z,10.00
2022-11-12T01:41:58.499Z,10.04
2022-11-12T01:44:48.716Z,10.07
2022-11-12T01:47:37.336Z,10.10
2022-11-12T01:50:28.443Z,10.09
2022-11-12T01:53:16.138Z,10.11
2022-11-12T01:56:01.064Z,10.11
2022-11-12T01:58:50.309Z,10.12
2022-11-12T02:01:37.850Z,10.13
2022-11-12T02:04:24.335Z,10.14
2022-11-12T02:07:11.195Z,10.16
2022-11-12T02:09:57.554Z,10.18
2022-11-12T02:13:01.806Z,10.19
2022-11-12T02:15:48.021Z,10.19
2022-11-12T02:18:33.896Z,10.16
2022-11-12T02:21:22.959Z,10.13
2022-11-12T02:24:22.883Z,10.14
2022-11-12T02:27:09.136Z,10.13
2022-11-12T02:29:55.076Z,10.10
2022-11-12T02:32:40.703Z,10.10
2022-11-12T02:35:26.356Z,10.08
2022-11-12T02:38:12.806Z,10.08
2022-11-12T02:40:58.697Z,10.08
2022-11-12T02:43:44.954Z,10.10
2022-11-12T02:46:30.519Z,10.09
2022-11-12T02:49:16.353Z,10.07
2022-11-12T02:52:02.141Z,10.09
2022-11-12T02:54:48.031Z,10.09
2022-11-12T02:57:33.716Z,10.11
2022-11-12T03:00:19.929Z,10.11
2022-11-12T03:03:05.853Z,10.08
2022-11-12T03:05:58.101Z,10.08
2022-11-12T03:08:43.969Z,10.09
2022-11-12T03:11:29.780Z,10.09
2022-11-12T03:14:15.854Z,10.09
2022-11-12T03:17:01.233Z,10.09
2022-11-12T03:19:46.807Z,10.09
2022-11-12T03:22:32.707Z,10.07
2022-11-12T03:25:18.701Z,10.07
2022-11-12T03:28:06.157Z,10.03
2022-11-12T03:30:52.381Z,9.99
2022-11-12T03:33:38.282Z,9.99
2022-11-12T03:36:24.158Z,9.97
2022-11-12T03:39:10.092Z,9.96
2022-11-12T03:41:55.787Z,9.94
2022-11-12T03:44:41.249Z,9.93
2022-11-12T03:47:26.755Z,9.92
2022-11-12T03:50:13.634Z,9.91
2022-11-12T03:53:01.108Z,9.92
2022-11-12T03:55:46.837Z,9.92
2022-11-12T03:58:32.732Z,9.93
2022-11-12T04:01:18.757Z,9.90
2022-11-12T04:04:05.268Z,9.88
2022-11-12T04:07:08.567Z,9.88
2022-11-12T04:09:54.697Z,9.84
2022-11-12T04:13:03.319Z,9.78
2022-11-12T04:16:08.256Z,9.73
2022-11-12T04:19:14.111Z,9.68
2022-11-12T04:22:03.702Z,9.62
2022-11-12T04:25:06.725Z,9.61
2022-11-12T04:27:52.485Z,9.61
2022-11-12T04:30:38.217Z,9.60
2022-11-12T04:33:24.165Z,9.60
2022-11-12T04:36:10.167Z,9.59
2022-11-12T04:38:55.679Z,9.58
2022-11-12T04:41:58.954Z,9.56
2022-11-12T04:45:01.515Z,9.53
2022-11-12T04:47:47.693Z,9.50
2022-11-12T04:50:34.003Z,9.51
2022-11-12T04:53:20.084Z,9.52
2022-11-12T04:56:06.340Z,9.49
2022-11-12T04:58:51.670Z,9.43
2022-11-12T05:01:37.451Z,9.36
2022-11-12T05:04:23.272Z,9.31
2022-11-12T05:07:08.790Z,9.28
2022-11-12T05:09:54.434Z,9.27
2022-11-12T05:12:40.427Z,9.24
2022-11-12T05:15:26.176Z,9.21
2022-11-12T05:18:11.885Z,9.18
2022-11-12T05:20:57.538Z,9.14
2022-11-12T05:23:43.313Z,9.08
2022-11-12T05:26:29.328Z,9.03
2022-11-12T05:29:14.631Z,8.99
2022-11-12T05:32:00.211Z,8.95
2022-11-12T05:34:45.909Z,8.94
2022-11-12T05:37:31.552Z,8.96
2022-11-12T05:40:17.899Z,8.97
2022-11-12T05:43:03.987Z,8.97
2022-11-12T05:45:49.586Z,8.97
2022-11-12T05:48:35.189Z,8.92
2022-11-12T05:51:20.735Z,8.90
2022-11-12T05:54:07.178Z,8.86
2022-11-12T05:56:54.456Z,8.82
2022-11-12T05:59:38.443Z,8.80
2022-11-12T06:02:24.618Z,8.77
2022-11-12T06:05:11.235Z,8.72
2022-11-12T06:07:57.011Z,8.68
2022-11-12T06:10:42.345Z,8.63
2022-11-12T06:13:28.674Z,8.61
2022-11-12T06:16:14.456Z,8.59
2022-11-12T06:19:00.429Z,8.56
2022-11-12T06:21:45.873Z,8.54
2022-11-12T06:24:35.367Z,8.56
2022-11-12T06:27:21.096Z,8.58
2022-11-12T06:30:08.940Z,8.60
2022-11-12T06:32:54.575Z,8.62
2022-11-12T06:35:42.968Z,8.61
2022-11-12T06:38:29.021Z,8.57
2022-11-12T06:41:15.794Z,8.47
2022-11-12T06:44:01.256Z,8.40
2022-11-12T06:46:46.776Z,8.35
2022-11-12T06:49:33.079Z,8.34
2022-11-12T06:52:19.350Z,8.33
2022-11-12T06:55:05.180Z,8.32
2022-11-12T06:57:54.433Z,8.31
2022-11-12T07:00:40.335Z,8.28
2022-11-12T07:03:25.904Z,8.30
2022-11-12T07:06:14.214Z,8.32
2022-11-12T07:08:59.936Z,8.31
2022-11-12T07:11:46.572Z,8.30
2022-11-12T07:14:32.047Z,8.27
2022-11-12T07:17:17.711Z,8.28
2022-11-12T07:20:04.310Z,8.31
2022-11-12T07:22:50.308Z,8.33
2022-11-12T07:25:35.911Z,8.32
2022-11-12T07:28:21.437Z,8.33
2022-11-12T07:31:09.615Z,8.35
2022-11-12T07:33:55.811Z,8.37
2022-11-12T07:36:42.008Z,8.36
2022-11-12T07:39:27.806Z,8.35
2022-11-12T07:42:14.199Z,8.35
2022-11-12T07:44:59.973Z,8.34
2022-11-12T07:47:46.181Z,8.33
2022-11-12T07:50:32.353Z,8.33
2022-11-12T07:53:18.062Z,8.32
2022-11-12T07:56:05.673Z,8.34
2022-11-12T07:58:50.612Z,8.36
2022-11-12T08:01:38.032Z,8.34
2022-11-12T08:04:24.411Z,8.36
2022-11-12T08:07:11.021Z,8.37
2022-11-12T08:09:56.813Z,8.38
2022-11-12T08:12:42.978Z,8.43
2022-11-12T08:15:29.488Z,8.45
2022-11-12T08:18:15.544Z,8.45
2022-11-12T08:21:05.040Z,8.51
2022-11-12T08:23:51.018Z,8.51
2022-11-12T08:26:36.744Z,8.52
2022-11-12T08:29:23.435Z,8.54
2022-11-12T08:32:10.121Z,8.58
2022-11-12T08:34:56.589Z,8.60
2022-11-12T08:37:42.390Z,8.63
2022-11-12T08:40:28.962Z,8.62
2022-11-12T08:43:15.034Z,8.63
2022-11-12T08:46:03.985Z,8.66
2022-11-12T08:48:49.883Z,8.73
2022-11-12T08:51:35.766Z,8.79
2022-11-12T08:54:21.661Z,8.83
2022-11-12T08:57:07.840Z,8.85
2022-11-12T08:59:53.870Z,8.88
2022-11-12T09:02:40.064Z,8.90
2022-11-12T09:05:25.624Z,8.87
2022-11-12T09:08:13.165Z,8.90
2022-11-12T09:11:00.795Z,8.92
2022-11-12T09:13:46.918Z,8.98
2022-11-12T09:16:32.783Z,9.00
2022-11-12T09:19:20.034Z,9.01
2022-11-12T09:22:06.238Z,9.03
2022-11-12T09:24:52.037Z,9.07
2022-11-12T09:27:37.977Z,9.12
2022-11-12T09:30:24.127Z,9.12
2022-11-12T09:33:09.983Z,9.13
2022-11-12T09:35:56.481Z,9.16
2022-11-12T09:38:42.117Z,9.18
2022-11-12T09:41:33.626Z,9.18
2022-11-12T09:44:22.184Z,9.17
2022-11-12T09:47:13.821Z,9.19
2022-11-12T09:50:12.177Z,9.20
2022-11-12T09:53:06.339Z,9.18
2022-11-12T09:55:52.562Z,9.16
2022-11-12T09:58:38.586Z,9.18
2022-11-12T10:01:38.144Z,9.20
2022-11-12T10:04:47.704Z,9.25
2022-11-12T10:07:57.115Z,9.24
2022-11-12T10:10:48.367Z,9.18
2022-11-12T10:13:47.727Z,9.16
2022-11-12T10:16:52.448Z,9.14
2022-11-12T10:20:00.249Z,9.16
2022-11-12T10:23:03.759Z,9.20
2022-11-12T10:25:51.886Z,9.24
2022-11-12T10:28:43.687Z,9.30
2022-11-12T10:31:29.302Z,9.35
2022-11-12T10:34:22.452Z,9.38
2022-11-12T10:37:13.992Z,9.44
2022-11-12T10:40:00.012Z,9.44
2022-11-12T10:43:00.011Z,9.44
2022-11-12T10:45:46.556Z,9.42
2022-11-12T10:48:34.731Z,9.37
2022-11-12T10:51:28.721Z,9.35
2022-11-12T10:54:31.930Z,9.33
2022-11-12T10:57:26.415Z,9.33
2022-11-12T11:00:19.499Z,9.32
2022-11-12T11:03:07.519Z,9.33
2022-11-12T11:05:55.586Z,9.36
2022-11-12T11:08:46.766Z,9.40
2022-11-12T11:11:33.260Z,9.43
2022-11-12T11:14:34.140Z,9.43
2022-11-12T11:17:21.180Z,9.43
2022-11-12T11:20:07.764Z,9.43
2022-11-12T11:22:57.617Z,9.43
2022-11-12T11:25:47.710Z,9.44
2022-11-12T11:28:40.245Z,9.43
2022-11-12T11:31:37.963Z,9.44
2022-11-12T11:34:34.636Z,9.46
2022-11-12T11:37:29.251Z,9.48
2022-11-12T11:40:21.881Z,9.49
2022-11-12T11:43:31.362Z,9.52
2022-11-12T11:46:31.042Z,9.55
2022-11-12T11:52:51.720Z,9.55
2022-11-12T11:55:47.317Z,9.54
2022-11-12T11:58:49.190Z,9.50
2022-11-12T12:01:48.598Z,9.48
2022-11-12T12:04:49.525Z,9.46
2022-11-12T12:07:45.020Z,9.46
2022-11-12T12:11:06.299Z,9.45
2022-11-12T12:14:01.825Z,9.45
2022-11-12T12:16:57.868Z,9.40
2022-11-12T12:19:58.253Z,9.37
2022-11-12T12:22:50.540Z,9.39
2022-11-12T12:25:40.210Z,9.43
2022-11-12T12:28:35.882Z,9.43
2022-11-12T12:31:28.536Z,9.45
2022-11-12T12:34:24.659Z,9.47
2022-11-12T12:37:23.259Z,9.50
2022-11-12T12:40:18.760Z,9.50
2022-11-12T12:43:11.733Z,9.50
2022-11-12T12:46:00.062Z,9.51
2022-11-12T12:48:48.106Z,9.52
2022-11-12T12:51:36.045Z,9.54
2022-11-12T12:55:00.943Z,9.54
2022-11-12T12:57:47.167Z,9.57
2022-11-12T13:00:36.550Z,9.56
2022-11-12T13:03:52.960Z,9.54
2022-11-12T13:06:55.621Z,9.53
2022-11-12T13:09:41.903Z,9.53
2022-11-12T13:13:07.350Z,9.53
2022-11-12T13:15:55.664Z,9.51
2022-11-12T13:19:03.946Z,9.53
2022-11-12T13:22:09.369Z,9.55
2022-11-12T13:25:26.063Z,9.58
2022-11-12T13:28:14.405Z,9.61
2022-11-12T13:31:03.461Z,9.61
2022-11-12T13:33:49.640Z,9.59
2022-11-12T13:36:35.491Z,9.56
2022-11-12T13:39:23.450Z,9.55
2022-11-12T13:42:35.272Z,9.53
2022-11-12T13:45:23.722Z,9.51
2022-11-12T13:48:15.000Z,9.50
2022-11-12T13:51:06.265Z,9.47
2022-11-12T13:53:52.090Z,9.47
2022-11-12T13:56:39.247Z,9.46
2022-11-12T13:59:26.873Z,9.46
2022-11-12T14:02:23.375Z,9.46
2022-11-12T14:05:17.158Z,9.47
2022-11-12T14:08:24.138Z,9.49
2022-11-12T14:11:39.776Z,9.47
2022-11-12T14:14:38.610Z,9.45
2022-11-12T14:17:32.753Z,9.41
2022-11-12T14:20:36.353Z,9.36
2022-11-12T14:23:25.350Z,9.34
2022-11-12T14:26:14.751Z,9.31
2022-11-12T14:29:01.218Z,9.29
2022-11-12T14:31:47.891Z,9.29
2022-11-12T14:34:34.970Z,9.33
2022-11-12T14:37:41.714Z,9.37
2022-11-12T14:40:28.697Z,9.44
2022-11-12T14:43:27.936Z,9.47
2022-11-12T14:46:26.747Z,9.47
2022-11-12T14:49:18.253Z,9.47
2022-11-12T14:52:10.678Z,9.49
2022-11-12T14:54:59.044Z,9.47
2022-11-12T14:57:45.214Z,9.49
2022-11-12T15:00:44.323Z,9.51
2022-11-12T15:03:35.862Z,9.50
2022-11-12T15:06:29.626Z,9.47
2022-11-12T15:09:21.970Z,9.49
2022-11-12T15:12:11.371Z,9.49
2022-11-12T15:15:08.741Z,9.49
2022-11-12T15:18:02.469Z,9.48
2022-11-12T15:21:03.536Z,9.50
2022-11-12T15:23:54.275Z,9.48
2022-11-12T15:26:42.227Z,9.45
2022-11-12T15:29:31.974Z,9.47
2022-11-12T15:32:35.595Z,9.50
2022-11-12T15:35:35.344Z,9.52
2022-11-12T15:38:27.122Z,9.57
2022-11-12T15:41:26.098Z,9.64
2022-11-12T15:44:13.445Z,9.66
2022-11-12T15:47:00.166Z,9.67
2022-11-12T15:49:52.832Z,9.73
2022-11-12T15:52:39.319Z,9.76
2022-11-12T15:55:25.325Z,9.79
2022-11-12T15:58:18.216Z,9.81
2022-11-12T16:01:04.397Z,9.81
2022-11-12T16:03:50.465Z,9.80
2022-11-12T16:06:36.569Z,9.82
2022-11-12T16:09:22.364Z,9.87
2022-11-12T16:12:11.694Z,9.92
2022-11-12T16:14:59.483Z,9.99
2022-11-12T16:17:46.109Z,10.03
2022-11-12T16:20:34.603Z,10.03
2022-11-12T16:23:20.483Z,10.07
2022-11-12T16:26:09.839Z,10.09
2022-11-12T16:28:55.744Z,10.11
2022-11-12T16:31:44.397Z,10.13
2022-11-12T16:34:30.288Z,10.10
2022-11-12T16:37:16.599Z,10.10
2022-11-12T16:40:02.535Z,10.11
2022-11-12T16:42:48.269Z,10.12
2022-11-12T16:45:40.147Z,10.12
2022-11-12T16:48:26.519Z,10.13
2022-11-12T16:51:18.772Z,10.14
2022-11-12T16:54:04.871Z,10.13
2022-11-12T16:56:50.906Z,10.12
2022-11-12T16:59:37.671Z,10.11
2022-11-12T17:02:24.103Z,10.11
2022-11-12T17:05:15.262Z,10.09
2022-11-12T17:08:00.917Z,10.09
2022-11-12T17:10:46.767Z,10.10
2022-11-12T17:13:32.598Z,10.12
2022-11-12T17:16:18.390Z,10.13
2022-11-12T17:19:05.602Z,10.13
2022-11-12T17:21:51.391Z,10.12
2022-11-12T17:24:36.928Z,10.10
2022-11-12T17:27:22.641Z,10.08
2022-11-12T17:30:11.379Z,10.05
2022-11-12T17:32:56.922Z,10.04
2022-11-12T17:35:42.409Z,10.04
2022-11-12T17:38:28.227Z,10.04
2022-11-12T17:41:14.036Z,10.05
2022-11-12T17:44:01.133Z,10.07
2022-11-12T17:46:47.256Z,10.08
2022-11-12T17:49:32.778Z,10.06
2022-11-12T17:52:18.730Z,10.04
2022-11-12T17:55:04.839Z,10.03
2022-11-12T17:57:51.396Z,10.07
2022-11-12T18:00:38.547Z,10.09
2022-11-12T18:03:24.678Z,10.10
2022-11-12T18:06:13.605Z,10.10
2022-11-12T18:09:01.312Z,10.08
2022-11-12T18:11:49.145Z,10.05
2022-11-12T18:14:35.270Z,10.02
2022-11-12T18:17:20.743Z,10.01
2022-11-12T18:20:07.736Z,9.99
2022-11-12T18:22:53.306Z,9.97
2022-11-12T18:25:39.767Z,9.94
2022-11-12T18:28:25.508Z,9.92
2022-11-12T18:31:14.256Z,9.88
2022-11-12T18:33:59.998Z,9.85
2022-11-12T18:36:46.284Z,9.87
2022-11-12T18:39:32.478Z,9.87
2022-11-12T18:42:18.532Z,9.85
2022-11-12T18:45:09.778Z,9.81
2022-11-12T18:47:55.860Z,9.78
2022-11-12T18:50:41.765Z,9.71
2022-11-12T18:53:27.705Z,9.66
2022-11-12T18:56:14.959Z,9.64
2022-11-12T18:59:00.967Z,9.63
2022-11-12T19:01:46.967Z,9.61
2022-11-12T19:04:33.191Z,9.60
2022-11-12T19:07:19.164Z,9.60
2022-11-12T19:10:14.615Z,9.60
2022-11-12T19:13:04.059Z,9.62
2022-11-12T19:15:49.752Z,9.61
2022-11-12T19:18:35.740Z,9.60
2022-11-12T19:21:23.859Z,9.57
2022-11-12T19:24:09.933Z,9.53
2022-11-12T19:26:55.895Z,9.51
2022-11-12T19:29:41.823Z,9.49
2022-11-12T19:32:27.710Z,9.48
2022-11-12T19:35:13.925Z,9.47
2022-11-12T19:37:59.862Z,9.48
2022-11-12T19:40:45.837Z,9.47
2022-11-12T19:43:31.650Z,9.45
2022-11-12T19:46:18.228Z,9.41
2022-11-12T19:49:03.910Z,9.37
2022-11-12T19:51:49.751Z,9.32
2022-11-12T19:54:35.194Z,9.30
2022-11-12T19:57:21.576Z,9.29
2022-11-12T20:00:10.909Z,9.28
2022-11-12T20:02:56.185Z,9.28
2022-11-12T20:05:42.644Z,9.26
2022-11-12T20:08:28.801Z,9.27
2022-11-12T20:11:16.275Z,9.27
2022-11-12T20:14:02.572Z,9.28
2022-11-12T20:16:49.517Z,9.25
2022-11-12T20:19:35.099Z,9.22
2022-11-12T20:22:21.137Z,9.22
2022-11-12T20:25:07.946Z,9.21
2022-11-12T20:27:53.349Z,9.20
2022-11-12T20:30:39.258Z,9.20
2022-11-12T20:33:25.476Z,9.22
2022-11-12T20:36:13.612Z,9.24
2022-11-12T20:39:00.330Z,9.25
2022-11-12T20:41:45.846Z,9.25
2022-11-12T20:44:31.712Z,9.24
2022-11-12T20:47:17.524Z,9.24
2022-11-12T20:50:03.383Z,9.24
2022-11-12T20:52:49.385Z,9.25
2022-11-12T20:55:35.032Z,9.23
2022-11-12T20:58:20.798Z,9.21
2022-11-12T21:01:08.238Z,9.20
2022-11-12T21:03:53.910Z,9.19
2022-11-12T21:06:39.624Z,9.18
2022-11-12T21:09:27.058Z,9.16
2022-11-12T21:12:12.916Z,9.12
2022-11-12T21:14:58.867Z,9.11
2022-11-12T21:17:44.971Z,9.08
2022-11-12T21:20:30.682Z,9.07
2022-11-12T21:23:16.260Z,9.07
2022-11-12T21:26:07.297Z,9.04
2022-11-12T21:28:54.388Z,9.02
2022-11-12T21:31:38.660Z,9.01
2022-11-12T21:34:24.272Z,9.00
2022-11-12T21:37:10.325Z,9.00
2022-11-12T21:39:56.601Z,8.97
2022-11-12T21:42:44.365Z,8.96
2022-11-12T21:45:30.155Z,8.95
2022-11-12T21:48:15.634Z,8.93
2022-11-12T21:51:07.478Z,8.95
2022-11-12T21:53:56.246Z,8.98
2022-11-12T21:56:42.239Z,9.01
2022-11-12T21:59:28.586Z,9.00
2022-11-12T22:02:15.598Z,8.98
2022-11-12T22:05:01.339Z,8.97
2022-11-12T22:07:47.220Z,8.96
2022-11-12T22:10:32.942Z,8.96
2022-11-12T22:13:27.016Z,8.95
2022-11-12T22:16:15.710Z,8.96
2022-11-12T22:19:02.281Z,8.98
2022-11-12T22:21:47.902Z,9.00
2022-11-12T22:24:33.515Z,9.01
2022-11-12T22:27:20.050Z,9.01
2022-11-12T22:30:06.701Z,9.02
2022-11-12T22:32:52.179Z,9.03
2022-11-12T22:35:38.029Z,9.04
2022-11-12T22:38:23.893Z,9.05
2022-11-12T22:41:11.264Z,9.05
2022-11-12T22:43:59.174Z,9.05
2022-11-12T22:46:43.256Z,9.04
2022-11-12T22:49:29.089Z,9.01
2022-11-12T22:52:14.629Z,9.00
2022-11-12T22:55:00.439Z,8.98
2022-11-12T22:57:46.266Z,8.95
2022-11-12T23:00:33.497Z,8.93
2022-11-12T23:03:19.442Z,8.94
2022-11-12T23:06:07.366Z,8.94
2022-11-12T23:08:53.832Z,8.93
2022-11-12T23:11:40.214Z,8.93
2022-11-12T23:14:26.323Z,8.93
2022-11-12T23:17:12.356Z,8.95
2022-11-12T23:19:57.999Z,8.94
2022-11-12T23:22:43.577Z,8.92
2022-11-12T23:25:29.658Z,8.93
2022-11-12T23:28:15.273Z,8.94
2022-11-12T23:31:01.202Z,8.96
2022-11-12T23:33:51.345Z,8.97
2022-11-12T23:36:37.101Z,8.96
2022-11-12T23:39:22.583Z,8.92
2022-11-12T23:42:08.475Z,8.87
2022-11-12T23:44:55.189Z,8.85
2022-11-12T23:47:41.096Z,8.83
2022-11-12T23:50:27.161Z,8.81
